createdAt,value
2019-04-25T00:01:50.388Z,10.70
2019-04-25T00:04:18.830Z,24.07
2019-04-25T00:06:47.246Z,28.50
2019-04-25T00:09:17.314Z,7.03
2019-04-25T00:11:47.804Z,5.80
2019-04-25T00:14:16.246Z,1.80
2019-04-25T00:16:45.909Z,2.17
2019-04-25T00:19:15.186Z,13.40
2019-04-25T00:22:02.009Z,27.53
2019-04-25T00:24:32.218Z,48.80
2019-04-25T00:27:02.108Z,16.87
2019-04-25T00:29:31.889Z,15.60
2019-04-25T00:32:01.665Z,24.40
2019-04-25T00:34:31.898Z,12.20
2019-04-25T00:37:02.063Z,2.70
2019-04-25T00:39:31.902Z,5.60
2019-04-25T00:42:02.162Z,8.70
2019-04-25T00:44:31.927Z,4.93
2019-04-25T00:47:02.274Z,3.00
2019-04-25T00:49:32.082Z,7.20
2019-04-25T00:52:02.028Z,6.30
2019-04-25T00:54:31.340Z,12.23
2019-04-25T00:56:59.923Z,13.63
2019-04-25T00:59:31.927Z,7.23
2019-04-25T01:02:11.486Z,9.33
2019-04-25T01:04:41.833Z,2.10
2019-04-25T01:07:10.114Z,3.90
2019-04-25T01:09:38.539Z,1.87
2019-04-25T01:12:07.237Z,4.87
2019-04-25T01:14:35.724Z,5.23
2019-04-25T01:17:04.154Z,4.03
2019-04-25T01:19:32.565Z,2.93
2019-04-25T01:22:01.037Z,2.10
2019-04-25T01:24:29.441Z,16.57
2019-04-25T01:26:57.875Z,11.20
2019-04-25T01:29:26.303Z,14.67
2019-04-25T01:31:55.282Z,42.57
2019-04-25T01:34:25.789Z,18.33
2019-04-25T01:36:58.861Z,45.77
2019-04-25T01:39:40.891Z,59.80
2019-04-25T01:42:27.590Z,58.00
2019-04-25T01:44:56.841Z,65.90
2019-04-25T01:47:26.939Z,13.80
2019-04-25T01:49:55.766Z,16.87
2019-04-25T01:52:25.124Z,31.90
2019-04-25T01:54:55.660Z,18.43
2019-04-25T01:57:24.035Z,48.97
2019-04-25T01:59:54.129Z,19.17
2019-04-25T02:02:24.457Z,11.70
2019-04-25T02:04:54.795Z,13.60
2019-04-25T02:07:23.442Z,17.93
2019-04-25T02:09:54.569Z,8.03
2019-04-25T02:12:26.849Z,14.23
2019-04-25T02:14:55.995Z,10.87
2019-04-25T02:17:25.253Z,6.47
2019-04-25T02:19:55.220Z,5.90
2019-04-25T02:22:24.355Z,15.27
2019-04-25T02:24:54.982Z,6.07
2019-04-25T02:27:24.214Z,10.87
2019-04-25T02:29:54.565Z,7.93
2019-04-25T02:32:24.750Z,16.57
2019-04-25T02:34:58.155Z,14.13
2019-04-25T02:37:25.584Z,22.17
2019-04-25T02:39:56.689Z,35.43
2019-04-25T02:42:24.707Z,52.00
2019-04-25T02:45:02.170Z,45.33
2019-04-25T02:47:34.553Z,63.50
2019-04-25T02:50:21.343Z,41.77
2019-04-25T02:52:51.511Z,44.00
2019-04-25T02:55:31.181Z,30.80
2019-04-25T02:57:50.087Z,31.10
2019-04-25T03:00:25.187Z,26.00
2019-04-25T03:02:54.764Z,55.60
2019-04-25T03:05:25.467Z,42.33
2019-04-25T03:07:54.462Z,43.53
2019-04-25T03:10:26.748Z,37.37
2019-04-25T03:12:54.437Z,59.53
2019-04-25T03:15:24.379Z,17.90
2019-04-25T03:17:54.655Z,26.60
2019-04-25T03:20:41.591Z,25.57
2019-04-25T03:23:14.707Z,3.90
2019-04-25T03:25:43.540Z,8.03
2019-04-25T03:28:13.778Z,17.00
2019-04-25T03:30:44.750Z,7.90
2019-04-25T03:33:18.949Z,1.87
2019-04-25T03:35:43.223Z,15.13
2019-04-25T03:38:11.735Z,6.33
2019-04-25T03:40:40.158Z,4.40
2019-04-25T03:43:08.926Z,5.63
2019-04-25T03:45:37.463Z,16.23
2019-04-25T03:48:06.461Z,6.97
2019-04-25T03:50:34.970Z,8.20
2019-04-25T03:53:05.331Z,14.53
2019-04-25T03:55:35.633Z,14.30
2019-04-25T03:58:07.486Z,5.37
2019-04-25T04:00:36.368Z,8.00
2019-04-25T04:03:06.467Z,15.57
2019-04-25T04:05:34.746Z,7.63
2019-04-25T04:08:04.323Z,13.23
2019-04-25T04:10:33.346Z,6.63
2019-04-25T04:13:01.761Z,38.70
2019-04-25T04:15:30.451Z,23.77
2019-04-25T04:18:05.112Z,48.40
2019-04-25T04:20:51.237Z,46.03
2019-04-25T04:23:24.284Z,39.90
2019-04-25T04:25:53.070Z,43.53
2019-04-25T04:28:23.659Z,55.20
2019-04-25T04:30:53.937Z,27.47
2019-04-25T04:33:30.155Z,32.80
2019-04-25T04:35:54.264Z,30.10
2019-04-25T04:38:24.076Z,36.87
2019-04-25T04:40:52.982Z,30.23
2019-04-25T04:43:21.412Z,43.90
2019-04-25T04:45:49.846Z,22.13
2019-04-25T04:48:18.869Z,16.43
2019-04-25T04:50:47.378Z,12.80
2019-04-25T04:53:16.328Z,10.27
2019-04-25T04:55:45.621Z,11.53
2019-04-25T04:58:14.982Z,24.93
2019-04-25T05:00:44.292Z,36.43
2019-04-25T05:03:30.207Z,47.27
2019-04-25T05:06:06.530Z,50.10
2019-04-25T05:08:36.594Z,44.20
2019-04-25T05:11:05.103Z,58.80
2019-04-25T05:13:34.207Z,34.03
2019-04-25T05:16:03.188Z,10.60
2019-04-25T05:18:37.213Z,7.23
2019-04-25T05:21:01.919Z,5.83
2019-04-25T05:23:30.340Z,8.47
2019-04-25T05:25:58.783Z,5.63
2019-04-25T05:28:27.190Z,7.60
2019-04-25T05:31:00.235Z,11.70
2019-04-25T05:33:28.675Z,5.07
2019-04-25T05:35:57.109Z,5.60
2019-04-25T05:38:25.542Z,11.80
2019-04-25T05:40:58.435Z,7.03
2019-04-25T05:43:28.638Z,8.00
2019-04-25T05:45:57.127Z,8.67
2019-04-25T05:48:26.304Z,10.97
2019-04-25T05:50:54.922Z,13.77
2019-04-25T05:53:24.164Z,19.30
2019-04-25T05:55:54.069Z,12.13
2019-04-25T05:58:24.517Z,24.40
2019-04-25T06:00:54.314Z,7.20
2019-04-25T06:03:24.801Z,7.20
2019-04-25T06:05:53.384Z,18.13
2019-04-25T06:08:25.452Z,4.43
2019-04-25T06:11:01.402Z,7.33
2019-04-25T06:13:33.230Z,13.53
2019-04-25T06:16:03.603Z,10.50
2019-04-25T06:18:36.711Z,6.27
2019-04-25T06:21:06.780Z,5.67
2019-04-25T06:23:54.465Z,3.53
2019-04-25T06:26:33.418Z,5.40
2019-04-25T06:28:58.958Z,8.90
2019-04-25T06:31:23.828Z,8.53
2019-04-25T06:33:53.926Z,4.70
2019-04-25T06:36:24.274Z,12.40
2019-04-25T06:38:54.128Z,9.93
2019-04-25T06:41:22.665Z,6.13
2019-04-25T06:43:54.058Z,9.63
2019-04-25T06:46:40.302Z,7.50
2019-04-25T06:49:10.374Z,9.80
2019-04-25T06:51:55.014Z,11.53
2019-04-25T06:54:25.389Z,8.60
2019-04-25T06:56:53.742Z,5.43
2019-04-25T06:59:25.530Z,11.50
2019-04-25T07:01:54.104Z,9.47
2019-04-25T07:04:25.099Z,2.00
2019-04-25T07:06:53.523Z,3.90
2019-04-25T07:09:24.419Z,4.10
2019-04-25T07:11:53.783Z,6.20
2019-04-25T07:14:24.555Z,2.23
2019-04-25T07:16:53.259Z,4.20
2019-04-25T07:19:21.765Z,1.30
2019-04-25T07:21:50.200Z,5.90
2019-04-25T07:24:18.657Z,4.23
2019-04-25T07:27:05.303Z,7.13
2019-04-25T07:29:41.167Z,8.80
2019-04-25T07:32:11.293Z,9.30
2019-04-25T07:34:39.770Z,6.30
2019-04-25T07:37:08.182Z,5.20
2019-04-25T07:39:36.619Z,4.50
2019-04-25T07:42:05.098Z,4.33
2019-04-25T07:44:44.263Z,8.17
2019-04-25T07:47:04.076Z,2.23
2019-04-25T07:49:33.594Z,3.93
2019-04-25T07:52:03.606Z,2.67
2019-04-25T07:54:34.016Z,3.20
2019-04-25T07:57:03.630Z,1.20
2019-04-25T07:59:35.989Z,6.47
2019-04-25T08:02:04.861Z,2.83
2019-04-25T08:04:35.682Z,2.30
2019-04-25T08:07:04.183Z,5.30
2019-04-25T08:09:34.522Z,2.50
2019-04-25T08:12:03.376Z,3.47
2019-04-25T08:14:34.187Z,11.53
2019-04-25T08:17:05.533Z,5.10
2019-04-25T08:19:34.653Z,3.33
2019-04-25T08:22:04.550Z,2.40
2019-04-25T08:24:35.810Z,6.03
2019-04-25T08:27:04.973Z,4.03
2019-04-25T08:29:36.361Z,5.87
2019-04-25T08:32:04.591Z,4.40
2019-04-25T08:34:34.841Z,3.30
2019-04-25T08:37:04.076Z,12.33
2019-04-25T08:39:34.027Z,2.60
2019-04-25T08:42:03.437Z,4.10
2019-04-25T08:44:33.046Z,11.63
2019-04-25T08:47:04.381Z,5.90
2019-04-25T08:49:36.954Z,3.27
2019-04-25T08:52:05.827Z,7.47
2019-04-25T08:54:40.066Z,6.13
2019-04-25T08:57:07.679Z,5.00
2019-04-25T08:59:55.459Z,7.50
2019-04-25T09:02:25.708Z,6.53
2019-04-25T09:04:55.767Z,1.70
2019-04-25T09:07:24.197Z,2.80
2019-04-25T09:09:53.517Z,2.53
2019-04-25T09:12:22.045Z,5.63
2019-04-25T09:14:50.469Z,1.83
2019-04-25T09:17:18.902Z,5.93
2019-04-25T09:19:47.321Z,5.40
2019-04-25T09:22:15.767Z,3.60
2019-04-25T09:24:45.337Z,4.10
2019-04-25T09:27:14.045Z,6.00
2019-04-25T09:29:43.485Z,6.67
2019-04-25T09:32:13.777Z,12.17
2019-04-25T09:34:43.733Z,4.13
2019-04-25T09:37:14.163Z,4.70
2019-04-25T09:39:53.758Z,2.80
2019-04-25T09:42:23.843Z,2.87
2019-04-25T09:44:53.970Z,2.60
2019-04-25T09:47:23.422Z,5.60
2019-04-25T09:49:53.539Z,3.63
2019-04-25T09:52:24.353Z,1.97
2019-04-25T09:54:54.514Z,2.07
2019-04-25T09:57:30.578Z,7.67
2019-04-25T09:59:59.077Z,5.10
2019-04-25T10:02:27.861Z,3.60
2019-04-25T10:04:56.284Z,9.10
2019-04-25T10:07:24.722Z,8.30
2019-04-25T10:09:54.637Z,7.87
2019-04-25T10:12:23.181Z,8.87
2019-04-25T10:15:10.907Z,4.07
2019-04-25T10:17:39.514Z,2.70
2019-04-25T10:20:08.267Z,1.97
2019-04-25T10:22:36.715Z,24.53
2019-04-25T10:25:06.179Z,7.07
2019-04-25T10:27:34.945Z,4.30
2019-04-25T10:30:15.996Z,5.00
2019-04-25T10:32:33.811Z,2.50
2019-04-25T10:35:02.646Z,3.83
2019-04-25T10:37:31.238Z,4.20
2019-04-25T10:39:59.738Z,1.77
2019-04-25T10:42:28.412Z,5.03
2019-04-25T10:44:56.908Z,7.33
2019-04-25T10:47:25.337Z,5.80
2019-04-25T10:49:55.514Z,4.70
2019-04-25T10:52:24.093Z,3.57
2019-04-25T10:54:54.194Z,3.57
2019-04-25T10:57:22.790Z,4.40
2019-04-25T11:00:01.180Z,3.77
2019-04-25T11:02:21.427Z,6.47
2019-04-25T11:04:51.740Z,3.23
2019-04-25T11:07:20.262Z,7.83
2019-04-25T11:09:49.195Z,2.17
2019-04-25T11:12:18.172Z,2.90
2019-04-25T11:14:46.700Z,4.07
2019-04-25T11:17:15.621Z,2.17
2019-04-25T11:19:44.585Z,2.30
2019-04-25T11:22:15.341Z,11.33
2019-04-25T11:24:43.846Z,2.20
2019-04-25T11:27:13.505Z,1.60
2019-04-25T11:29:43.213Z,2.03
2019-04-25T11:32:13.243Z,5.57
2019-04-25T11:34:43.398Z,4.40
2019-04-25T11:37:14.695Z,5.10
2019-04-25T11:39:54.921Z,4.70
2019-04-25T11:42:24.088Z,1.93
2019-04-25T11:44:54.247Z,4.13
2019-04-25T11:47:24.284Z,1.47
2019-04-25T11:49:54.597Z,1.87
2019-04-25T11:52:28.246Z,1.90
2019-04-25T11:54:54.795Z,6.03
2019-04-25T11:57:23.391Z,4.83
2019-04-25T11:59:52.397Z,2.90
2019-04-25T12:02:21.979Z,4.97
2019-04-25T12:04:51.032Z,4.50
2019-04-25T12:07:19.594Z,3.70
2019-04-25T12:09:48.415Z,4.13
2019-04-25T12:12:16.839Z,7.50
2019-04-25T12:14:46.307Z,2.67
2019-04-25T12:17:14.880Z,3.47
2019-04-25T12:19:43.313Z,7.73
2019-04-25T12:22:13.411Z,6.27
2019-04-25T12:24:44.526Z,8.67
2019-04-25T12:27:12.547Z,1.50
2019-04-25T12:29:41.039Z,4.87
2019-04-25T12:32:09.590Z,5.53
2019-04-25T12:34:38.014Z,6.20
2019-04-25T12:37:06.764Z,3.43
2019-04-25T12:39:35.355Z,1.47
2019-04-25T12:42:04.426Z,3.37
2019-04-25T12:44:49.211Z,6.80
2019-04-25T12:47:23.811Z,2.00
2019-04-25T12:49:53.184Z,3.00
2019-04-25T12:52:24.412Z,1.63
2019-04-25T12:54:55.488Z,5.10
2019-04-25T12:57:24.109Z,3.10
2019-04-25T12:59:55.301Z,2.80
2019-04-25T13:02:23.541Z,3.17
2019-04-25T13:04:52.070Z,1.10
2019-04-25T13:07:20.567Z,2.67
2019-04-25T13:09:51.304Z,1.77
2019-04-25T13:12:20.347Z,1.00
2019-04-25T13:14:48.779Z,1.63
2019-04-25T13:17:17.279Z,2.13
2019-04-25T13:19:45.702Z,10.30
2019-04-25T13:22:14.126Z,0.80
2019-04-25T13:24:42.549Z,0.80
2019-04-25T13:27:14.200Z,8.70
2019-04-25T13:30:03.769Z,8.23
2019-04-25T13:32:34.652Z,2.03
2019-04-25T13:35:04.869Z,5.73
2019-04-25T13:37:34.190Z,1.47
2019-04-25T13:40:03.746Z,3.07
2019-04-25T13:42:33.363Z,3.37
2019-04-25T13:45:01.923Z,4.70
2019-04-25T13:47:30.810Z,2.00
2019-04-25T13:49:59.259Z,2.60
2019-04-25T13:52:27.690Z,4.70
2019-04-25T13:54:56.200Z,7.10
2019-04-25T13:57:25.908Z,2.60
2019-04-25T13:59:54.784Z,3.20
2019-04-25T14:02:24.623Z,2.70
2019-04-25T14:04:53.049Z,24.37
2019-04-25T14:07:21.844Z,1.87
2019-04-25T14:09:50.635Z,2.80
2019-04-25T14:12:19.137Z,1.20
2019-04-25T14:14:47.554Z,7.97
2019-04-25T14:17:17.711Z,3.20
2019-04-25T14:19:50.207Z,3.13
2019-04-25T14:22:18.650Z,1.20
2019-04-25T14:24:47.079Z,2.80
2019-04-25T14:27:17.151Z,1.00
2019-04-25T14:29:45.567Z,1.30
2019-04-25T14:32:15.634Z,1.47
2019-04-25T14:34:44.338Z,3.27
2019-04-25T14:37:12.771Z,1.60
2019-04-25T14:39:41.206Z,1.20
2019-04-25T14:42:09.691Z,3.13
2019-04-25T14:44:38.130Z,3.37
2019-04-25T14:47:06.631Z,3.67
2019-04-25T14:49:35.068Z,6.97
2019-04-25T14:52:03.561Z,2.77
2019-04-25T14:54:39.509Z,7.03
2019-04-25T14:57:12.611Z,1.00
2019-04-25T14:59:41.174Z,1.57
2019-04-25T15:02:09.656Z,3.13
2019-04-25T15:04:38.100Z,2.40
2019-04-25T15:07:06.517Z,1.83
2019-04-25T15:09:35.393Z,1.60
2019-04-25T15:12:04.044Z,0.90
2019-04-25T15:14:33.484Z,3.37
2019-04-25T15:17:01.979Z,0.87
2019-04-25T15:19:30.413Z,7.93
2019-04-25T15:21:58.869Z,3.00
2019-04-25T15:24:27.313Z,8.07
2019-04-25T15:26:55.742Z,3.10
2019-04-25T15:29:24.171Z,1.10
2019-04-25T15:31:56.055Z,11.33
2019-04-25T15:34:25.037Z,4.93
2019-04-25T15:37:04.985Z,3.20
2019-04-25T15:39:35.303Z,10.10
2019-04-25T15:42:08.326Z,4.60
2019-04-25T15:44:54.882Z,5.03
2019-04-25T15:47:25.259Z,2.17
2019-04-25T15:49:54.778Z,2.83
2019-04-25T15:52:23.259Z,10.80
2019-04-25T15:54:51.704Z,5.77
2019-04-25T15:57:20.113Z,5.03
2019-04-25T15:59:48.550Z,5.37
2019-04-25T16:02:17.718Z,12.93
2019-04-25T16:04:46.222Z,1.10
2019-04-25T16:07:15.006Z,1.53
2019-04-25T16:09:43.458Z,5.40
2019-04-25T16:12:12.236Z,1.93
2019-04-25T16:14:41.234Z,5.23
2019-04-25T16:17:09.762Z,5.23
2019-04-25T16:19:38.190Z,8.20
2019-04-25T16:22:06.689Z,1.80
2019-04-25T16:24:35.174Z,3.90
2019-04-25T16:27:05.240Z,5.47
2019-04-25T16:29:33.697Z,2.13
2019-04-25T16:32:03.780Z,4.10
2019-04-25T16:34:32.265Z,1.73
2019-04-25T16:37:00.771Z,9.57
2019-04-25T16:39:30.993Z,1.67
2019-04-25T16:41:59.419Z,3.60
2019-04-25T16:44:28.749Z,2.60
2019-04-25T16:46:57.514Z,2.60
2019-04-25T16:49:26.790Z,9.93
2019-04-25T16:51:55.253Z,4.53
2019-04-25T16:54:23.689Z,6.10
2019-04-25T16:56:52.198Z,7.90
2019-04-25T16:59:20.638Z,1.20
2019-04-25T17:01:49.135Z,1.93
2019-04-25T17:04:19.869Z,1.60
2019-04-25T17:06:47.786Z,2.20
2019-04-25T17:09:16.201Z,9.30
2019-04-25T17:11:44.658Z,3.60
2019-04-25T17:14:17.379Z,4.20
2019-04-25T17:16:47.527Z,12.13
2019-04-25T17:19:20.397Z,4.93
2019-04-25T17:21:48.998Z,4.00
2019-04-25T17:24:17.504Z,10.30
2019-04-25T17:26:45.995Z,9.20
2019-04-25T17:29:16.122Z,1.20
2019-04-25T17:31:46.217Z,1.93
2019-04-25T17:34:31.836Z,3.80
2019-04-25T17:37:04.775Z,5.50
2019-04-25T17:39:44.056Z,2.93
2019-04-25T17:42:12.515Z,2.40
2019-04-25T17:44:40.934Z,5.73
2019-04-25T17:47:09.371Z,7.60
2019-04-25T17:49:37.798Z,2.13
2019-04-25T17:52:06.247Z,2.30
2019-04-25T17:54:34.666Z,3.60
2019-04-25T17:57:03.118Z,3.57
2019-04-25T17:59:32.316Z,12.63
2019-04-25T18:02:02.312Z,3.77
2019-04-25T18:04:30.738Z,1.67
2019-04-25T18:06:59.182Z,5.33
2019-04-25T18:09:27.628Z,11.50
2019-04-25T18:11:56.096Z,4.30
2019-04-25T18:14:24.534Z,5.87
2019-04-25T18:16:52.968Z,11.77
2019-04-25T18:19:25.085Z,5.50
2019-04-25T18:21:54.825Z,1.37
2019-04-25T18:24:41.594Z,11.00
2019-04-25T18:27:23.838Z,2.67
2019-04-25T18:29:52.345Z,10.80
2019-04-25T18:32:20.846Z,3.63
2019-04-25T18:34:53.969Z,11.63
2019-04-25T18:37:30.313Z,3.37
2019-04-25T18:40:00.388Z,7.50
2019-04-25T18:42:30.451Z,5.80
2019-04-25T18:44:58.920Z,3.77
2019-04-25T18:47:27.395Z,3.73
2019-04-25T18:49:55.826Z,2.50
2019-04-25T18:52:42.932Z,1.73
2019-04-25T18:55:22.442Z,5.50
2019-04-25T18:57:52.499Z,3.43
2019-04-25T19:00:39.233Z,4.90
2019-04-25T19:03:09.315Z,6.43
2019-04-25T19:05:39.780Z,7.20
2019-04-25T19:08:09.303Z,6.17
2019-04-25T19:10:39.444Z,9.03
2019-04-25T19:13:12.732Z,12.40
2019-04-25T19:15:39.722Z,12.00
2019-04-25T19:18:08.558Z,15.73
2019-04-25T19:20:37.249Z,8.67
2019-04-25T19:23:05.675Z,15.00
2019-04-25T19:25:34.131Z,9.20
2019-04-25T19:28:02.556Z,8.53
2019-04-25T19:30:31.002Z,5.70
2019-04-25T19:32:59.418Z,6.93
2019-04-25T19:35:27.915Z,6.40
2019-04-25T19:37:56.595Z,9.63
2019-04-25T19:40:45.915Z,6.40
2019-04-25T19:43:16.124Z,3.80
2019-04-25T19:45:44.829Z,6.83
2019-04-25T19:48:13.320Z,12.43
2019-04-25T19:50:42.905Z,6.30
2019-04-25T19:53:11.594Z,18.43
2019-04-25T19:55:40.944Z,15.77
2019-04-25T19:58:10.205Z,12.80
2019-04-25T20:00:38.685Z,5.33
2019-04-25T20:03:08.762Z,6.60
2019-04-25T20:05:44.626Z,2.03
2019-04-25T20:08:20.785Z,6.90
2019-04-25T20:10:51.428Z,2.90
2019-04-25T20:13:19.888Z,7.73
2019-04-25T20:15:48.319Z,8.13
2019-04-25T20:18:16.794Z,6.90
2019-04-25T20:20:46.045Z,13.43
2019-04-25T20:23:14.635Z,1.97
2019-04-25T20:25:43.776Z,4.07
2019-04-25T20:28:13.291Z,5.50
2019-04-25T20:30:41.711Z,8.23
2019-04-25T20:33:10.141Z,3.27
2019-04-25T20:35:38.635Z,7.10
2019-04-25T20:38:07.149Z,1.53
2019-04-25T20:40:35.565Z,3.07
2019-04-25T20:43:04.014Z,16.50
2019-04-25T20:45:32.494Z,3.70
2019-04-25T20:48:00.959Z,2.93
2019-04-25T20:50:29.371Z,3.93
2019-04-25T20:52:58.050Z,4.53
2019-04-25T20:55:26.482Z,3.03
2019-04-25T20:57:55.482Z,1.93
2019-04-25T21:00:43.778Z,5.37
2019-04-25T21:03:12.321Z,2.73
2019-04-25T21:05:41.245Z,7.03
2019-04-25T21:08:09.686Z,3.23
2019-04-25T21:10:38.189Z,1.97
2019-04-25T21:13:08.331Z,3.40
2019-04-25T21:15:56.458Z,2.60
2019-04-25T21:18:29.550Z,1.83
2019-04-25T21:20:57.975Z,2.10
2019-04-25T21:23:26.406Z,3.30
2019-04-25T21:25:54.929Z,1.97
2019-04-25T21:28:23.410Z,2.90
2019-04-25T21:30:52.701Z,1.83
2019-04-25T21:33:21.241Z,3.23
2019-04-25T21:35:50.880Z,2.03
2019-04-25T21:38:19.723Z,7.47
2019-04-25T21:40:49.793Z,2.60
2019-04-25T21:43:25.897Z,3.83
2019-04-25T21:45:54.844Z,2.77
2019-04-25T21:48:24.333Z,1.30
2019-04-25T21:50:53.688Z,1.80
2019-04-25T21:53:23.256Z,2.50
2019-04-25T21:55:51.958Z,1.53
2019-04-25T21:58:21.789Z,2.03
2019-04-25T22:00:53.816Z,1.10
2019-04-25T22:03:24.914Z,4.00
2019-04-25T22:05:54.151Z,2.27
2019-04-25T22:08:23.727Z,1.53
2019-04-25T22:10:52.168Z,1.13
2019-04-25T22:13:20.650Z,0.90
2019-04-25T22:15:49.351Z,0.90
2019-04-25T22:18:18.052Z,2.60
2019-04-25T22:20:46.568Z,2.00
2019-04-25T22:23:15.243Z,0.90
2019-04-25T22:25:43.850Z,1.37
2019-04-25T22:28:12.522Z,1.40
2019-04-25T22:30:43.016Z,1.30
2019-04-25T22:33:13.075Z,5.90
2019-04-25T22:35:45.630Z,2.07
2019-04-25T22:38:14.237Z,1.40
2019-04-25T22:40:42.669Z,1.20
2019-04-25T22:43:12.046Z,1.87
2019-04-25T22:45:40.850Z,1.10
2019-04-25T22:48:09.265Z,1.93
2019-04-25T22:50:37.979Z,1.20
2019-04-25T22:53:06.394Z,1.47
2019-04-25T22:55:35.101Z,1.90
2019-04-25T22:58:03.780Z,0.93
2019-04-25T23:00:33.891Z,3.37
2019-04-25T23:03:05.165Z,0.90
2019-04-25T23:05:41.241Z,1.20
2019-04-25T23:08:10.101Z,1.50
2019-04-25T23:10:38.654Z,1.77
2019-04-25T23:13:07.074Z,4.23
2019-04-25T23:15:35.582Z,1.03
2019-04-25T23:18:05.266Z,1.10
2019-04-25T23:20:33.865Z,1.40
2019-04-25T23:23:04.170Z,1.00
2019-04-25T23:25:34.085Z,1.13
2019-04-25T23:28:05.332Z,0.90
2019-04-25T23:30:35.945Z,0.90
2019-04-25T23:33:05.293Z,1.30
2019-04-25T23:35:34.622Z,2.30
2019-04-25T23:38:05.624Z,1.67
2019-04-25T23:40:34.064Z,1.00
2019-04-25T23:43:02.753Z,1.77
2019-04-25T23:45:31.176Z,3.87
2019-04-25T23:47:59.609Z,1.00
2019-04-25T23:50:28.205Z,5.13
2019-04-25T23:52:56.638Z,1.87
2019-04-25T23:55:25.431Z,3.20
2019-04-25T23:57:53.874Z,1.50
